Time;durP1;ratioP1;P1;durP2;ratioP2;P2;SDS_P1;SDS_P2;PMS_P1;PMS_P2;Temp;Humidity;BMP_temperature;BMP_pressure;BME280_temperature;BME280_humidity;BME280_pressure;Samples;Min_cycle;Max_cycle;Signal;HPM_P1;HPM_P2
2021/12/29 00:00:30;;;;;;;1999.90;999.90;;;6.50;99.90;;;;;;5011547;28;20503;-73
2021/12/29 00:02:59;;;;;;;1999.90;999.90;;;6.50;99.90;;;;;;5013346;28;20541;-73
2021/12/29 00:05:27;;;;;;;1999.90;999.90;;;6.50;99.90;;;;;;5014214;28;20452;-73
2021/12/29 00:07:56;;;;;;;1999.90;999.90;;;6.50;99.90;;;;;;5014154;28;20483;-72
2021/12/29 00:10:23;;;;;;;1999.90;999.90;;;6.50;99.90;;;;;;5014496;28;20493;-73
2021/12/29 00:12:52;;;;;;;1999.90;999.90;;;6.50;99.90;;;;;;5012574;28;20523;-74
2021/12/29 00:15:21;;;;;;;1999.90;999.90;;;6.50;99.90;;;;;;5012967;28;20963;-73
2021/12/29 00:17:48;;;;;;;1999.90;999.90;;;6.60;99.90;;;;;;5012960;28;20444;-73
2021/12/29 00:20:19;;;;;;;1999.90;999.90;;;6.50;99.90;;;;;;5012660;28;20448;-74
2021/12/29 00:22:46;;;;;;;1999.90;999.90;;;6.50;99.90;;;;;;5012874;28;20499;-73
2021/12/29 00:25:15;;;;;;;1999.90;999.90;;;6.50;99.90;;;;;;5012755;28;20502;-73
2021/12/29 00:27:41;;;;;;;1999.90;999.90;;;6.50;99.90;;;;;;5012646;28;20448;-73
2021/12/29 00:30:11;;;;;;;1999.90;999.90;;;6.50;99.90;;;;;;5012478;28;21007;-73
2021/12/29 00:32:38;;;;;;;1999.90;999.90;;;6.40;99.90;;;;;;5012988;28;20472;-74
2021/12/29 00:35:08;;;;;;;1999.90;999.90;;;6.40;99.90;;;;;;5012420;28;20484;-73
2021/12/29 00:37:34;;;;;;;1999.90;999.90;;;6.30;99.90;;;;;;5012893;28;20452;-72
2021/12/29 00:40:01;;;;;;;1999.90;999.90;;;6.30;99.90;;;;;;5012972;28;20451;-71
2021/12/29 00:42:29;;;;;;;1999.90;999.90;;;6.30;99.90;;;;;;5015464;28;20902;-74
2021/12/29 00:44:56;;;;;;;1999.90;999.90;;;6.10;99.90;;;;;;5016554;28;20444;-72
2021/12/29 00:47:22;;;;;;;1999.90;999.90;;;6.10;99.90;;;;;;5016088;28;20456;-73
2021/12/29 00:49:49;;;;;;;1999.90;999.90;;;6.20;99.90;;;;;;5015051;28;20875;-74
2021/12/29 00:52:16;;;;;;;1999.90;999.90;;;6.10;99.90;;;;;;5015114;28;20873;-70
2021/12/29 00:54:44;;;;;;;1999.90;999.90;;;6.00;99.90;;;;;;5016387;28;20543;-72
2021/12/29 00:57:11;;;;;;;1999.90;999.90;;;6.00;99.90;;;;;;5016798;28;20479;-73
2021/12/29 00:59:39;;;;;;;1999.90;999.90;;;6.10;99.90;;;;;;5016263;28;20444;-72
2021/12/29 01:02:06;;;;;;;1999.90;999.90;;;6.00;99.90;;;;;;5017048;28;20444;-72
2021/12/29 01:04:33;;;;;;;1999.90;999.90;;;5.90;99.90;;;;;;5016538;28;20464;-71
2021/12/29 01:07:00;;;;;;;1999.90;999.90;;;5.90;99.90;;;;;;5016641;28;20456;-73
2021/12/29 01:09:27;;;;;;;1999.90;999.90;;;5.70;99.90;;;;;;5017048;28;20448;-72
2021/12/29 01:11:56;;;;;;;1999.90;999.90;;;5.60;99.90;;;;;;5016571;28;20444;-72
2021/12/29 01:14:24;;;;;;;1999.90;999.90;;;5.50;99.90;;;;;;5016711;28;20487;-72
2021/12/29 01:16:53;;;;;;;1999.90;999.90;;;5.40;99.90;;;;;;5017537;28;20451;-72
2021/12/29 01:19:23;;;;;;;1999.90;999.90;;;5.40;99.90;;;;;;5017896;28;20510;-73
2021/12/29 01:21:53;;;;;;;1999.90;999.90;;;5.30;99.90;;;;;;5015580;28;20506;-73
2021/12/29 01:24:21;;;;;;;1999.90;999.90;;;5.40;99.90;;;;;;5017408;28;20503;-73
2021/12/29 01:26:49;;;;;;;1999.90;999.90;;;5.40;99.90;;;;;;5017624;28;20483;-72
2021/12/29 01:29:15;;;;;;;1999.90;999.90;;;5.30;99.90;;;;;;5017991;28;20452;-74
2021/12/29 01:31:43;;;;;;;1999.90;999.90;;;5.20;99.90;;;;;;5019895;28;20506;-72
2021/12/29 01:34:12;;;;;;;1999.90;999.90;;;5.20;99.90;;;;;;5020476;28;20476;-72
2021/12/29 01:36:39;;;;;;;1999.90;999.90;;;5.00;99.90;;;;;;5019353;28;20479;-71
2021/12/29 01:39:09;;;;;;;1999.90;999.90;;;5.40;99.90;;;;;;5019464;28;20944;-72
2021/12/29 01:41:36;;;;;;;1999.90;999.90;;;5.30;99.90;;;;;;5021061;28;20467;-72
2021/12/29 01:44:03;;;;;;;1999.90;999.90;;;5.20;99.90;;;;;;5020966;28;21065;-73
2021/12/29 01:46:30;;;;;;;1999.90;999.90;;;5.20;99.90;;;;;;5020529;28;20933;-72
2021/12/29 01:48:56;;;;;;;1999.90;999.90;;;5.20;99.90;;;;;;5020707;28;20448;-72
2021/12/29 01:51:25;;;;;;;1999.90;999.90;;;5.10;99.90;;;;;;5020384;28;20521;-73
2021/12/29 01:54:03;;;;;;;1999.90;999.90;;;5.10;99.90;;;;;;5021215;28;20486;-71
2021/12/29 01:56:32;;;;;;;1999.90;999.90;;;5.10;99.90;;;;;;5021417;28;20455;-73
2021/12/29 01:58:59;;;;;;;1999.90;999.90;;;5.10;99.90;;;;;;5020714;28;20496;-72
2021/12/29 02:01:26;;;;;;;1999.90;999.90;;;5.10;99.90;;;;;;5021045;28;20464;-73
2021/12/29 02:03:55;;;;;;;1999.90;999.90;;;5.20;99.90;;;;;;5021040;28;20980;-73
2021/12/29 02:06:23;;;;;;;1999.90;999.90;;;5.20;99.90;;;;;;5021436;28;20491;-72
2021/12/29 02:08:53;;;;;;;1999.90;999.90;;;5.10;99.90;;;;;;5020637;28;20506;-73
2021/12/29 02:11:25;;;;;;;1999.90;999.90;;;5.10;99.90;;;;;;5020077;28;20452;-72
2021/12/29 02:13:51;;;;;;;1999.90;999.90;;;5.20;99.90;;;;;;5019603;28;20492;-73
2021/12/29 02:16:18;;;;;;;1999.90;999.90;;;5.30;99.90;;;;;;5020246;28;20447;-73
2021/12/29 02:18:51;;;;;;;1999.90;999.90;;;5.20;99.90;;;;;;5020457;28;20455;-73
2021/12/29 02:21:20;;;;;;;1999.90;999.90;;;5.20;99.90;;;;;;5020368;28;20436;-73
2021/12/29 02:24:04;;;;;;;1999.90;999.90;;;5.20;99.90;;;;;;5020001;28;20991;-72
2021/12/29 02:26:33;;;;;;;1999.90;999.90;;;5.10;99.90;;;;;;5019896;28;20502;-73
2021/12/29 02:29:02;;;;;;;1999.90;999.90;;;5.10;99.90;;;;;;5020112;28;20510;-72
2021/12/29 02:31:29;;;;;;;1999.90;999.90;;;5.10;99.90;;;;;;5020279;28;20480;-72
2021/12/29 02:33:57;;;;;;;1999.90;999.90;;;5.10;99.90;;;;;;5020169;28;20492;-72
2021/12/29 02:36:26;;;;;;;1999.90;999.90;;;5.00;99.90;;;;;;5019520;28;20491;-72
2021/12/29 02:38:55;;;;;;;1999.90;999.90;;;4.90;99.90;;;;;;5019891;28;21007;-72
2021/12/29 02:41:24;;;;;;;1999.90;999.90;;;4.90;99.90;;;;;;5019886;28;20444;-73
2021/12/29 02:43:58;;;;;;;1999.90;999.90;;;4.90;99.90;;;;;;5019496;28;20543;-72
2021/12/29 02:46:25;;;;;;;1999.90;999.90;;;5.00;99.90;;;;;;5018712;28;20478;-72
2021/12/29 02:48:56;;;;;;;1999.90;999.90;;;5.00;99.90;;;;;;5019389;28;20575;-73
2021/12/29 02:51:23;;;;;;;1999.90;999.90;;;5.00;99.90;;;;;;5019569;28;20443;-73
2021/12/29 02:53:51;;;;;;;1999.90;999.90;;;4.90;99.90;;;;;;5020022;28;20472;-73
2021/12/29 02:56:17;;;;;;;1999.90;999.90;;;4.80;99.90;;;;;;5019894;28;21021;-72
2021/12/29 02:58:44;;;;;;;1999.90;999.90;;;4.80;99.90;;;;;;5020024;28;20448;-74
2021/12/29 03:01:14;;;;;;;1999.90;999.90;;;4.80;99.90;;;;;;5019686;28;20505;-73
2021/12/29 03:03:41;;;;;;;1999.90;999.90;;;4.80;99.90;;;;;;5019032;28;20472;-73
2021/12/29 03:06:09;;;;;;;1999.90;999.90;;;4.80;99.90;;;;;;5019188;28;20460;-72
2021/12/29 03:08:37;;;;;;;1999.90;999.90;;;4.80;99.90;;;;;;5018609;28;20482;-72
2021/12/29 03:11:05;;;;;;;1999.90;999.90;;;4.70;99.90;;;;;;5017518;28;20448;-73
2021/12/29 03:13:34;;;;;;;1999.90;999.90;;;4.60;99.90;;;;;;5017840;28;20530;-72
2021/12/29 03:16:01;;;;;;;1999.90;999.90;;;4.50;99.90;;;;;;5017289;28;20542;-72
2021/12/29 03:18:29;;;;;;;1999.90;999.90;;;4.50;99.90;;;;;;5017282;28;20483;-73
2021/12/29 03:20:55;;;;;;;1999.90;999.90;;;4.50;99.90;;;;;;5018593;28;20538;-72
2021/12/29 03:23:22;;;;;;;1999.90;999.90;;;4.50;99.90;;;;;;5018579;28;20486;-74
2021/12/29 03:25:51;;;;;;;1999.90;999.90;;;4.50;99.90;;;;;;5017760;28;20466;-72
2021/12/29 03:28:21;;;;;;;1999.90;999.90;;;4.60;99.90;;;;;;5019220;28;20447;-72
2021/12/29 03:30:51;;;;;;;1999.90;999.90;;;4.50;99.90;;;;;;5017564;28;20499;-73
2021/12/29 03:33:19;;;;;;;1999.90;999.90;;;4.60;99.90;;;;;;5017845;28;20472;-72
2021/12/29 03:35:47;;;;;;;1999.90;999.90;;;4.60;99.90;;;;;;5019260;28;20484;-72
2021/12/29 03:38:18;;;;;;;1999.90;999.90;;;4.70;99.90;;;;;;5013758;28;20456;-75
2021/12/29 03:40:45;;;;;;;1999.90;999.90;;;4.70;99.90;;;;;;5013312;28;20448;-74
2021/12/29 03:43:13;;;;;;;1999.90;999.90;;;4.80;99.90;;;;;;5013177;28;20530;-76
2021/12/29 03:45:44;;;;;;;1999.90;999.90;;;4.80;99.90;;;;;;5012960;28;20452;-75
2021/12/29 03:48:12;;;;;;;1999.90;999.90;;;4.90;99.90;;;;;;5013382;28;20456;-75
2021/12/29 03:50:39;;;;;;;1999.90;999.90;;;4.90;99.90;;;;;;5013077;28;20502;-75
2021/12/29 03:53:07;;;;;;;1999.90;999.90;;;5.00;99.90;;;;;;5012356;28;20530;-75
2021/12/29 03:55:33;;;;;;;1999.90;999.90;;;5.10;99.90;;;;;;5012778;28;20479;-75
2021/12/29 03:58:00;;;;;;;1999.90;999.90;;;5.10;99.90;;;;;;5013253;28;21003;-75
2021/12/29 04:00:27;;;;;;;1999.90;999.90;;;5.10;99.90;;;;;;5013099;28;20494;-76
2021/12/29 04:02:55;;;;;;;1999.90;999.90;;;5.20;99.90;;;;;;5013190;28;20463;-76
2021/12/29 04:05:24;;;;;;;1999.90;999.90;;;5.30;99.90;;;;;;5013064;28;20448;-75
2021/12/29 04:07:52;;;;;;;1999.90;999.90;;;5.40;99.90;;;;;;5012392;28;20448;-75
2021/12/29 04:10:20;;;;;;;1999.90;999.90;;;5.50;99.90;;;;;;5012833;28;20451;-75
2021/12/29 04:12:46;;;;;;;1999.90;999.90;;;5.50;99.90;;;;;;5012913;28;20480;-76
2021/12/29 04:15:15;;;;;;;1999.90;999.90;;;5.60;99.90;;;;;;5012938;28;20933;-76
2021/12/29 04:17:42;;;;;;;1999.90;999.90;;;5.60;99.90;;;;;;5012947;28;20829;-75
2021/12/29 04:22:58;;;;;;;1999.90;999.90;;;5.70;99.90;;;;;;5012572;28;20471;-75
2021/12/29 04:25:25;;;;;;;1999.90;999.90;;;5.70;99.90;;;;;;5012739;28;20839;-76
2021/12/29 04:27:52;;;;;;;1999.90;999.90;;;5.80;99.90;;;;;;5012514;28;20502;-76
2021/12/29 04:30:18;;;;;;;1999.90;999.90;;;5.80;99.90;;;;;;5016543;28;20449;-73
2021/12/29 04:32:45;;;;;;;1999.90;999.90;;;5.80;99.90;;;;;;5018542;28;20518;-72
2021/12/29 04:35:14;;;;;;;1999.90;999.90;;;5.90;99.90;;;;;;5017302;28;20476;-73
2021/12/29 04:37:40;;;;;;;1999.90;999.90;;;5.90;99.90;;;;;;5016909;28;20448;-72
2021/12/29 04:40:08;;;;;;;1999.90;999.90;;;6.00;99.90;;;;;;5017191;28;20522;-73
2021/12/29 04:42:35;;;;;;;1999.90;999.90;;;6.10;99.90;;;;;;5015973;28;20937;-72
2021/12/29 04:45:02;;;;;;;1999.90;999.90;;;6.20;99.90;;;;;;5015831;28;20933;-72
2021/12/29 04:47:30;;;;;;;1999.90;999.90;;;6.40;99.90;;;;;;5014815;28;20517;-72
2021/12/29 04:49:59;;;;;;;1999.90;999.90;;;6.30;99.90;;;;;;5015214;28;20483;-73
2021/12/29 04:52:28;;;;;;;1999.90;999.90;;;6.30;99.90;;;;;;5015319;28;20463;-72
2021/12/29 04:54:55;;;;;;;1999.90;999.90;;;6.30;99.90;;;;;;5014854;28;20472;-73
2021/12/29 04:57:22;;;;;;;1999.90;999.90;;;6.30;99.90;;;;;;5014577;28;20452;-72
2021/12/29 04:59:49;;;;;;;1999.90;999.90;;;6.20;99.90;;;;;;5015077;28;20510;-72
2021/12/29 05:02:16;;;;;;;1999.90;999.90;;;6.30;99.90;;;;;;5014129;28;20984;-72
2021/12/29 05:04:48;;;;;;;1999.90;999.90;;;6.40;99.90;;;;;;5013254;28;20907;-73
2021/12/29 05:10:01;;;;;;;1999.90;999.90;;;6.30;99.90;;;;;;4997992;28;20955;-71
2021/12/29 05:12:28;;;;;;;1999.90;999.90;;;6.30;99.90;;;;;;5015501;28;21327;-73
2021/12/29 05:14:55;;;;;;;1999.90;999.90;;;6.20;99.90;;;;;;5015843;28;20526;-73
2021/12/29 05:17:21;;;;;;;1999.90;999.90;;;6.20;99.90;;;;;;5014162;28;20518;-72
2021/12/29 05:19:48;;;;;;;1999.90;999.90;;;6.20;99.90;;;;;;5014757;28;21006;-72
2021/12/29 05:22:14;;;;;;;1999.90;999.90;;;6.20;99.90;;;;;;5014910;28;20510;-72
2021/12/29 05:24:41;;;;;;;1999.90;999.90;;;6.20;99.90;;;;;;5014129;28;20460;-74
2021/12/29 05:27:09;;;;;;;1999.90;999.90;;;6.20;99.90;;;;;;5013776;28;20968;-73
2021/12/29 05:29:36;;;;;;;1999.90;999.90;;;6.20;99.90;;;;;;5014291;28;20452;-73
2021/12/29 05:32:04;;;;;;;1999.90;999.90;;;6.20;99.90;;;;;;5013453;28;20539;-72
2021/12/29 05:34:30;;;;;;;1999.90;999.90;;;6.20;99.90;;;;;;4993827;28;20469;-72
2021/12/29 05:36:57;;;;;;;1999.90;999.90;;;6.20;99.90;;;;;;4994456;28;20508;-72
2021/12/29 05:39:23;;;;;;;1999.90;999.90;;;6.30;99.90;;;;;;5013305;28;20482;-72
2021/12/29 05:41:51;;;;;;;1999.90;999.90;;;6.40;99.90;;;;;;5015164;28;20502;-72
2021/12/29 05:44:19;;;;;;;1999.90;999.90;;;6.50;99.90;;;;;;5015250;28;20550;-72
2021/12/29 05:46:46;;;;;;;1999.90;999.90;;;6.60;99.90;;;;;;5013941;28;20444;-73
2021/12/29 05:49:12;;;;;;;1999.90;999.90;;;6.70;99.90;;;;;;5013996;28;20452;-73
2021/12/29 05:51:39;;;;;;;1999.90;999.90;;;6.90;99.90;;;;;;5012723;28;20968;-73
2021/12/29 05:54:06;;;;;;;1999.90;999.90;;;6.90;99.90;;;;;;5013003;28;20468;-72
2021/12/29 05:56:32;;;;;;;1999.90;999.90;;;6.90;99.90;;;;;;5014522;28;20488;-72
2021/12/29 05:59:01;;;;;;;1999.90;999.90;;;7.00;99.90;;;;;;5013772;28;21010;-72
2021/12/29 06:01:31;;;;;;;1999.90;999.90;;;7.00;99.90;;;;;;5012807;28;20590;-73
2021/12/29 06:03:57;;;;;;;1999.90;999.90;;;7.00;99.90;;;;;;5012974;28;20478;-72
2021/12/29 06:06:24;;;;;;;1999.90;999.90;;;7.00;99.90;;;;;;5013206;28;20932;-73
2021/12/29 06:08:51;;;;;;;1999.90;999.90;;;7.10;99.90;;;;;;5013897;28;20451;-73
2021/12/29 06:11:17;;;;;;;1999.90;999.90;;;7.20;99.90;;;;;;5013625;28;20448;-72
2021/12/29 06:13:44;;;;;;;1999.90;999.90;;;7.20;99.90;;;;;;5001987;28;20542;-72
2021/12/29 06:16:11;;;;;;;1999.90;999.90;;;7.30;99.90;;;;;;5013998;28;20480;-72
2021/12/29 06:18:39;;;;;;;1999.90;999.90;;;7.30;99.90;;;;;;5017016;28;20460;-73
2021/12/29 06:21:05;;;;;;;1999.90;999.90;;;7.30;99.90;;;;;;5015678;28;20955;-76
2021/12/29 06:23:32;;;;;;;1999.90;999.90;;;7.20;99.90;;;;;;5016350;28;20468;-73
2021/12/29 06:25:58;;;;;;;1999.90;999.90;;;7.20;99.90;;;;;;5015498;28;20448;-73
2021/12/29 06:28:25;;;;;;;1999.90;999.90;;;7.10;99.90;;;;;;5015315;28;20526;-74
2021/12/29 06:30:52;;;;;;;1999.90;999.90;;;7.10;99.90;;;;;;5014426;28;20821;-71
2021/12/29 06:33:18;;;;;;;1999.90;999.90;;;7.10;99.90;;;;;;5014815;28;20471;-74
2021/12/29 06:35:46;;;;;;;1999.90;999.90;;;7.10;99.90;;;;;;5014863;28;20476;-74
2021/12/29 06:38:13;;;;;;;1999.90;999.90;;;7.00;99.90;;;;;;5014553;28;20960;-73
2021/12/29 06:40:40;;;;;;;1999.90;999.90;;;7.10;99.90;;;;;;5014479;28;20444;-71
2021/12/29 06:43:06;;;;;;;1999.90;999.90;;;7.10;99.90;;;;;;5014873;28;20522;-73
2021/12/29 06:45:33;;;;;;;1999.90;999.90;;;7.10;99.90;;;;;;5014555;28;20448;-72
2021/12/29 06:47:59;;;;;;;1999.90;999.90;;;7.10;99.90;;;;;;5014906;28;21022;-73
2021/12/29 06:50:26;;;;;;;1999.90;999.90;;;7.10;99.90;;;;;;5014758;28;20452;-72
2021/12/29 06:52:55;;;;;;;1999.90;999.90;;;7.00;99.90;;;;;;5015018;28;20473;-73
2021/12/29 06:55:22;;;;;;;1999.90;999.90;;;7.00;99.90;;;;;;5014137;28;21030;-75
2021/12/29 06:57:49;;;;;;;1999.90;999.90;;;7.00;99.90;;;;;;5014550;28;20478;-73
2021/12/29 07:00:16;;;;;;;1999.90;999.90;;;7.00;99.90;;;;;;5014421;28;20452;-74
2021/12/29 07:02:43;;;;;;;1999.90;999.90;;;7.00;99.90;;;;;;5014514;28;20903;-73
2021/12/29 07:05:10;;;;;;;1999.90;999.90;;;7.00;99.90;;;;;;5014357;28;20448;-74
2021/12/29 07:07:36;;;;;;;1999.90;999.90;;;7.00;99.90;;;;;;5014184;28;20448;-74
2021/12/29 07:10:06;;;;;;;1999.90;999.90;;;7.00;99.90;;;;;;5013841;28;20506;-74
2021/12/29 07:12:33;;;;;;;1999.90;999.90;;;7.00;99.90;;;;;;5013299;28;21030;-72
2021/12/29 07:15:00;;;;;;;1999.90;999.90;;;6.90;99.90;;;;;;4994894;28;20449;-73
2021/12/29 07:17:26;;;;;;;1999.90;999.90;;;6.80;99.90;;;;;;4995481;28;20452;-73
2021/12/29 07:19:53;;;;;;;1999.90;999.90;;;6.90;99.90;;;;;;4998789;28;20959;-70
2021/12/29 07:22:20;;;;;;;1999.90;999.90;;;7.10;99.90;;;;;;5007107;28;20474;-71
2021/12/29 07:24:46;;;;;;;1999.90;999.90;;;7.20;99.90;;;;;;5012449;28;20457;-72
2021/12/29 07:27:15;;;;;;;1999.90;999.90;;;7.30;99.90;;;;;;5017668;28;20490;-72
2021/12/29 07:29:42;;;;;;;1999.90;999.90;;;7.40;99.90;;;;;;5015185;28;20456;-72
2021/12/29 07:32:09;;;;;;;1999.90;999.90;;;7.40;99.90;;;;;;5000051;28;20452;-72
2021/12/29 07:34:36;;;;;;;1999.90;999.90;;;7.40;99.90;;;;;;5016391;28;20472;-73
2021/12/29 07:37:03;;;;;;;1999.90;999.90;;;7.40;99.90;;;;;;5015850;28;20506;-72
2021/12/29 07:39:30;;;;;;;1999.90;999.90;;;7.50;99.90;;;;;;5017365;28;20445;-73
2021/12/29 07:41:56;;;;;;;1999.90;999.90;;;7.50;99.90;;;;;;5017684;28;20440;-72
2021/12/29 07:44:25;;;;;;;1999.90;999.90;;;7.50;99.90;;;;;;5017150;28;20566;-73
2021/12/29 07:46:55;;;;;;;1999.90;999.90;;;7.60;99.90;;;;;;5016407;28;20944;-72
2021/12/29 07:49:22;;;;;;;1999.90;999.90;;;7.60;99.90;;;;;;5015852;28;20448;-72
2021/12/29 07:51:49;;;;;;;1999.90;999.90;;;7.60;99.90;;;;;;5016797;28;20478;-72
2021/12/29 07:54:16;;;;;;;1999.90;999.90;;;7.60;99.90;;;;;;5014636;28;20530;-72
2021/12/29 07:56:44;;;;;;;1999.90;999.90;;;7.50;99.90;;;;;;5014097;28;20534;-73
2021/12/29 07:59:10;;;;;;;1999.90;999.90;;;7.60;99.90;;;;;;5014083;28;20445;-70
2021/12/29 08:01:40;;;;;;;1999.90;999.90;;;7.60;99.90;;;;;;5015015;28;20952;-72
2021/12/29 08:04:07;;;;;;;1999.90;999.90;;;7.60;99.90;;;;;;5014982;28;20903;-74
2021/12/29 08:06:33;;;;;;;1999.90;999.90;;;7.60;99.90;;;;;;5015869;28;20479;-72
2021/12/29 08:09:00;;;;;;;1999.90;999.90;;;7.60;99.90;;;;;;5014097;28;20443;-73
2021/12/29 08:11:27;;;;;;;1999.90;999.90;;;7.60;99.90;;;;;;5012101;28;20459;-73
2021/12/29 08:13:54;;;;;;;1999.90;999.90;;;7.70;99.90;;;;;;5014918;28;20510;-74
2021/12/29 08:16:21;;;;;;;1999.90;999.90;;;7.70;99.90;;;;;;5009494;28;20554;-73
2021/12/29 08:18:50;;;;;;;1999.90;999.90;;;7.70;99.90;;;;;;5014856;28;20456;-74
2021/12/29 08:21:16;;;;;;;1999.90;999.90;;;7.70;99.90;;;;;;5012019;28;20468;-73
2021/12/29 08:23:43;;;;;;;1999.90;999.90;;;7.70;99.90;;;;;;5012267;28;20472;-72
2021/12/29 08:26:10;;;;;;;1999.90;999.90;;;7.70;99.90;;;;;;5009417;28;20448;-73
2021/12/29 08:28:37;;;;;;;1999.90;999.90;;;7.70;99.90;;;;;;5012122;28;20487;-74
2021/12/29 08:31:04;;;;;;;1999.90;999.90;;;7.70;99.90;;;;;;5012218;28;20463;-72
2021/12/29 08:33:33;;;;;;;1999.90;999.90;;;7.70;99.90;;;;;;5004638;28;20482;-75
2021/12/29 08:36:01;;;;;;;1999.90;999.90;;;7.70;99.90;;;;;;5012397;28;20575;-72
2021/12/29 08:38:27;;;;;;;1999.90;999.90;;;7.70;99.90;;;;;;5013036;28;20479;-74
2021/12/29 08:40:54;;;;;;;1999.90;999.90;;;7.80;99.90;;;;;;5012930;28;20452;-73
2021/12/29 08:43:21;;;;;;;1999.90;999.90;;;7.80;99.90;;;;;;5012843;28;20479;-72
2021/12/29 08:45:47;;;;;;;1999.90;999.90;;;7.70;99.90;;;;;;5007363;28;20441;-72
2021/12/29 08:48:14;;;;;;;1999.90;999.90;;;7.80;99.90;;;;;;5005939;28;20452;-74
2021/12/29 08:50:41;;;;;;;1999.90;999.90;;;7.80;99.90;;;;;;5011887;28;20452;-74
2021/12/29 08:53:10;;;;;;;1999.90;999.90;;;7.80;99.90;;;;;;5006638;28;20468;-72
2021/12/29 08:55:39;;;;;;;1999.90;999.90;;;7.80;99.90;;;;;;5012259;28;20455;-75
2021/12/29 08:58:07;;;;;;;1999.90;999.90;;;7.90;99.90;;;;;;5015157;28;20531;-73
2021/12/29 09:00:35;;;;;;;1999.90;999.90;;;7.90;99.90;;;;;;5013284;28;20447;-72
2021/12/29 09:03:01;;;;;;;1999.90;999.90;;;7.80;99.90;;;;;;5013332;28;20467;-72
2021/12/29 09:05:28;;;;;;;1999.90;999.90;;;7.90;99.90;;;;;;5012625;28;20539;-72
2021/12/29 09:07:55;;;;;;;1999.90;999.90;;;7.90;99.90;;;;;;5010682;28;20521;-72
2021/12/29 09:10:23;;;;;;;1999.90;999.90;;;7.80;99.90;;;;;;5007048;28;20992;-74
2021/12/29 09:12:51;;;;;;;1999.90;999.90;;;7.80;99.90;;;;;;5012052;28;20542;-73
2021/12/29 09:15:19;;;;;;;1999.90;999.90;;;7.80;99.90;;;;;;5011820;28;20479;-75
2021/12/29 09:17:46;;;;;;;1999.90;999.90;;;7.80;99.90;;;;;;5012419;28;20483;-74
2021/12/29 09:20:23;;;;;;;1999.90;999.90;;;7.80;99.90;;;;;;5011245;28;20966;-74
2021/12/29 09:22:51;;;;;;;1999.90;999.90;;;7.90;99.90;;;;;;5011477;28;20486;-72
2021/12/29 09:25:20;;;;;;;1999.90;999.90;;;7.90;99.90;;;;;;5014209;28;20455;-73
2021/12/29 09:27:50;;;;;;;1999.90;999.90;;;7.90;99.90;;;;;;5010870;28;20448;-74
2021/12/29 09:30:18;;;;;;;1999.90;999.90;;;8.00;99.90;;;;;;5010032;28;20460;-74
2021/12/29 09:32:45;;;;;;;1999.90;999.90;;;8.00;99.90;;;;;;5010916;28;20467;-73
2021/12/29 09:35:12;;;;;;;1999.90;999.90;;;8.00;99.90;;;;;;5011916;28;20502;-74
2021/12/29 09:37:39;;;;;;;1999.90;999.90;;;8.10;99.90;;;;;;5021530;28;20523;-73
2021/12/29 09:40:07;;;;;;;1999.90;999.90;;;8.10;99.90;;;;;;5011386;28;20448;-74
2021/12/29 09:42:34;;;;;;;1999.90;999.90;;;8.10;99.90;;;;;;5010907;28;20948;-74
2021/12/29 09:45:03;;;;;;;1999.90;999.90;;;8.20;99.90;;;;;;5011766;28;20518;-72
2021/12/29 09:47:30;;;;;;;1999.90;999.90;;;8.30;99.90;;;;;;5012235;28;20506;-73
2021/12/29 09:49:57;;;;;;;1999.90;999.90;;;8.20;99.90;;;;;;5011632;28;20475;-75
2021/12/29 09:52:29;;;;;;;1999.90;999.90;;;8.20;99.90;;;;;;5014026;28;20506;-73
2021/12/29 09:54:56;;;;;;;1999.90;999.90;;;8.20;99.90;;;;;;5016002;28;20448;-74
2021/12/29 09:57:23;;;;;;;1999.90;999.90;;;8.30;99.90;;;;;;5015155;28;20614;-74
2021/12/29 09:59:49;;;;;;;1999.90;999.90;;;8.30;99.90;;;;;;5015789;28;20818;-75
2021/12/29 10:02:17;;;;;;;1999.90;999.90;;;8.30;99.90;;;;;;5015353;28;20456;-74
2021/12/29 10:04:46;;;;;;;1999.90;999.90;;;8.40;99.90;;;;;;5015241;28;20510;-74
2021/12/29 10:07:14;;;;;;;1999.90;999.90;;;8.40;99.90;;;;;;5015577;28;20606;-74
2021/12/29 10:09:41;;;;;;;1999.90;999.90;;;8.50;99.90;;;;;;5015397;28;20506;-74
2021/12/29 10:12:10;;;;;;;1999.90;999.90;;;8.60;99.90;;;;;;5015359;28;20447;-74
2021/12/29 10:14:38;;;;;;;1999.90;999.90;;;8.60;99.90;;;;;;5015357;28;20472;-72
2021/12/29 10:17:11;;;;;;;1999.90;999.90;;;8.70;99.90;;;;;;5015455;28;20475;-72
2021/12/29 10:19:39;;;;;;;1999.90;999.90;;;8.70;99.90;;;;;;5015449;28;20482;-72
2021/12/29 10:22:06;;;;;;;1999.90;999.90;;;8.80;99.90;;;;;;5015159;28;20441;-73
2021/12/29 10:24:34;;;;;;;1999.90;999.90;;;8.90;99.90;;;;;;5015117;28;20479;-73
2021/12/29 10:27:01;;;;;;;1999.90;999.90;;;8.70;99.90;;;;;;5015525;28;20478;-73
2021/12/29 10:29:29;;;;;;;1999.90;999.90;;;8.80;99.90;;;;;;5016478;28;20498;-72
2021/12/29 10:31:58;;;;;;;1999.90;999.90;;;8.70;99.90;;;;;;5017185;28;20539;-72
2021/12/29 10:34:29;;;;;;;1999.90;999.90;;;8.70;99.90;;;;;;4996532;28;20988;-72
2021/12/29 10:36:59;;;;;;;1999.90;999.90;;;8.60;99.90;;;;;;5000769;28;20559;-72
2021/12/29 10:39:28;;;;;;;1999.90;999.90;;;8.50;99.90;;;;;;5016055;28;20508;-72
2021/12/29 10:41:58;;;;;;;1999.90;999.90;;;8.50;99.90;;;;;;5014185;28;20794;-73
2021/12/29 10:44:28;;;;;;;1999.90;999.90;;;8.50;99.90;;;;;;5015538;28;20510;-73
2021/12/29 10:46:56;;;;;;;1999.90;999.90;;;8.50;99.90;;;;;;5015305;28;20587;-71
2021/12/29 10:49:25;;;;;;;1999.90;999.90;;;8.50;99.90;;;;;;5015477;28;20505;-71
2021/12/29 10:51:52;;;;;;;1999.90;999.90;;;8.50;99.90;;;;;;5015755;28;20448;-73
2021/12/29 10:54:24;;;;;;;1999.90;999.90;;;8.50;99.90;;;;;;5015521;28;20472;-72
2021/12/29 10:57:00;;;;;;;1999.90;999.90;;;8.50;99.90;;;;;;5015295;28;20479;-72
2021/12/29 10:59:30;;;;;;;1999.90;999.90;;;8.50;99.90;;;;;;5015811;28;20940;-72
2021/12/29 11:01:57;;;;;;;1999.90;999.90;;;8.40;99.90;;;;;;5016348;28;20498;-72
2021/12/29 11:04:25;;;;;;;1999.90;999.90;;;8.40;99.90;;;;;;5015400;28;20529;-73
2021/12/29 11:06:56;;;;;;;1999.90;999.90;;;8.40;99.90;;;;;;5016995;28;20440;-72
2021/12/29 11:09:27;;;;;;;1999.90;999.90;;;8.40;99.90;;;;;;5016391;28;20815;-73
2021/12/29 11:11:55;;;;;;;1999.90;999.90;;;8.30;99.90;;;;;;5016214;28;20448;-71
2021/12/29 11:14:25;;;;;;;1999.90;999.90;;;8.30;99.90;;;;;;5016188;28;20534;-72
2021/12/29 11:17:02;;;;;;;1999.90;999.90;;;8.30;99.90;;;;;;5016470;28;20538;-72
2021/12/29 11:19:29;;;;;;;1999.90;999.90;;;8.30;99.90;;;;;;5015871;28;20452;-71
2021/12/29 11:22:11;;;;;;;1999.90;999.90;;;8.40;99.90;;;;;;5015396;28;20460;-72
2021/12/29 11:24:40;;;;;;;1999.90;999.90;;;8.50;99.90;;;;;;5015880;28;20467;-71
2021/12/29 11:27:13;;;;;;;1999.90;999.90;;;8.50;99.90;;;;;;5014585;28;20452;-72
2021/12/29 11:29:53;;;;;;;1999.90;999.90;;;8.50;99.90;;;;;;5015033;28;20433;-71
2021/12/29 11:32:22;;;;;;;1999.90;999.90;;;8.60;99.90;;;;;;5014755;28;20444;-72
2021/12/29 11:34:59;;;;;;;1999.90;999.90;;;8.60;99.90;;;;;;5014686;28;20444;-72
2021/12/29 11:37:26;;;;;;;1999.90;999.90;;;8.70;99.90;;;;;;5014292;28;20538;-71
2021/12/29 11:39:54;;;;;;;1999.90;999.90;;;8.70;99.90;;;;;;5015003;28;20975;-70
2021/12/29 11:42:20;;;;;;;1999.90;999.90;;;8.70;99.90;;;;;;5014382;28;20867;-70
2021/12/29 11:44:47;;;;;;;1999.90;999.90;;;8.70;99.90;;;;;;5014260;28;20506;-73
2021/12/29 11:47:14;;;;;;;1999.90;999.90;;;8.70;99.90;;;;;;5014722;28;20444;-72
2021/12/29 11:49:41;;;;;;;1999.90;999.90;;;8.70;99.90;;;;;;5015035;28;20448;-72
2021/12/29 11:52:14;;;;;;;1999.90;999.90;;;8.70;99.90;;;;;;5014531;28;20457;-72
2021/12/29 11:54:51;;;;;;;1999.90;999.90;;;9.00;99.90;;;;;;5015710;28;20556;-71
2021/12/29 11:57:24;;;;;;;1999.90;999.90;;;8.60;99.90;;;;;;5014050;28;20979;-71
2021/12/29 11:59:50;;;;;;;1999.90;999.90;;;8.60;99.90;;;;;;5014841;28;20506;-73
2021/12/29 12:02:24;;;;;;;1999.90;999.90;;;8.60;99.90;;;;;;5013795;28;20460;-72
2021/12/29 12:05:00;;;;;;;1999.90;999.90;;;8.70;99.90;;;;;;5013749;28;20937;-72
2021/12/29 12:07:26;;;;;;;1999.90;999.90;;;8.70;99.90;;;;;;4996476;28;20444;-71
2021/12/29 12:09:53;;;;;;;1999.90;999.90;;;8.70;99.90;;;;;;5013927;28;20460;-72
2021/12/29 12:12:21;;;;;;;1999.90;999.90;;;8.70;99.90;;;;;;5013292;28;20518;-71
2021/12/29 12:14:49;;;;;;;1999.90;999.90;;;8.70;99.90;;;;;;5012526;28;20527;-71
2021/12/29 12:17:18;;;;;;;1999.90;999.90;;;8.70;99.90;;;;;;5013128;28;20492;-72